createdAt,value
2019-04-22T00:01:21.544Z,15.50
2019-04-22T00:03:52.497Z,14.50
2019-04-22T00:06:39.212Z,15.30
2019-04-22T00:09:15.975Z,14.70
2019-04-22T00:11:46.998Z,14.10
2019-04-22T00:14:06.992Z,14.03
2019-04-22T00:16:46.950Z,14.57
2019-04-22T00:19:30.399Z,13.47
2019-04-22T00:24:12.225Z,14.10
2019-04-22T00:26:45.881Z,14.07
2019-04-22T00:29:37.451Z,15.17
2019-04-22T00:31:57.426Z,13.90
2019-04-22T00:34:22.570Z,14.63
2019-04-22T00:36:54.324Z,14.90
2019-04-22T00:39:31.660Z,12.80
2019-04-22T00:41:57.015Z,13.40
2019-04-22T00:44:25.650Z,13.60
2019-04-22T00:47:02.836Z,14.00
2019-04-22T00:52:03.298Z,13.27
2019-04-22T00:54:28.186Z,14.83
2019-04-22T00:56:55.440Z,13.90
2019-04-22T00:59:23.529Z,13.30
2019-04-22T01:02:00.699Z,13.70
2019-04-22T01:04:36.475Z,13.37
2019-04-22T01:06:59.599Z,13.20
2019-04-22T01:09:32.616Z,13.90
2019-04-22T01:12:04.713Z,13.43
2019-04-22T01:14:28.070Z,14.60
2019-04-22T01:17:00.025Z,14.37
2019-04-22T01:19:34.792Z,12.97
2019-04-22T01:21:58.258Z,12.93
2019-04-22T01:24:28.051Z,13.80
2019-04-22T01:26:53.503Z,13.50
2019-04-22T01:29:22.831Z,14.87
2019-04-22T01:31:42.022Z,14.00
2019-04-22T01:34:23.239Z,13.00
2019-04-22T01:36:57.737Z,14.03
2019-04-22T01:39:39.017Z,13.03
2019-04-22T01:42:06.213Z,12.73
2019-04-22T01:47:10.431Z,12.90
2019-04-22T01:49:34.381Z,13.90
2019-04-22T01:52:05.189Z,13.00
2019-04-22T01:54:41.838Z,13.67
2019-04-22T01:57:03.321Z,12.33
2019-04-22T01:59:31.705Z,13.63
2019-04-22T02:02:09.278Z,12.60
2019-04-22T02:04:53.669Z,12.70
2019-04-22T02:07:09.644Z,11.90
2019-04-22T02:12:13.140Z,13.37
2019-04-22T02:14:39.514Z,13.30
2019-04-22T02:17:14.500Z,13.37
2019-04-22T02:22:07.095Z,13.47
2019-04-22T02:27:17.411Z,13.20
2019-04-22T02:29:43.483Z,12.50
2019-04-22T02:32:19.969Z,13.57
2019-04-22T02:35:02.083Z,13.90
2019-04-22T02:39:52.875Z,13.70
2019-04-22T02:44:48.470Z,12.63
2019-04-22T02:47:25.570Z,13.67
2019-04-22T02:57:35.762Z,13.07
2019-04-22T03:02:19.510Z,12.87
2019-04-22T03:04:49.153Z,13.10
2019-04-22T03:07:18.870Z,12.87
2019-04-22T03:09:50.805Z,12.17
2019-04-22T03:14:48.676Z,13.30
2019-04-22T03:17:25.712Z,12.37
2019-04-22T03:20:06.291Z,13.47
2019-04-22T03:25:05.546Z,12.93
2019-04-22T03:35:31.109Z,12.90
2019-04-22T03:40:16.083Z,13.00
2019-04-22T03:42:52.395Z,13.33
2019-04-22T03:45:19.726Z,12.47
2019-04-22T03:47:54.300Z,13.43
2019-04-22T03:50:20.727Z,13.07
2019-04-22T03:52:47.080Z,13.17
2019-04-22T03:55:09.111Z,13.87
2019-04-22T03:57:53.637Z,14.20
2019-04-22T04:00:19.848Z,13.30
2019-04-22T04:02:45.749Z,12.43
2019-04-22T04:05:24.367Z,13.20
2019-04-22T04:10:30.202Z,13.30
2019-04-22T04:12:49.274Z,12.67
2019-04-22T04:30:23.269Z,12.67
2019-04-22T04:33:09.244Z,12.83
2019-04-22T04:35:28.070Z,13.53
2019-04-22T04:37:54.992Z,13.83
2019-04-22T04:40:21.450Z,12.00
2019-04-22T04:42:46.367Z,12.20
2019-04-22T04:45:40.938Z,13.63
2019-04-22T04:50:21.877Z,12.70
2019-04-22T04:55:24.407Z,12.70
2019-04-22T04:57:57.610Z,13.07
2019-04-22T05:05:22.977Z,12.93
2019-04-22T05:15:21.596Z,13.10
2019-04-22T05:17:54.186Z,12.40
2019-04-22T05:20:28.336Z,12.67
2019-04-22T05:27:45.318Z,12.43
2019-04-22T05:32:44.560Z,11.30
2019-04-22T05:35:14.423Z,11.27
2019-04-22T05:37:54.708Z,12.10
2019-04-22T05:40:20.254Z,11.23
2019-04-22T05:42:46.264Z,11.27
2019-04-22T05:45:17.327Z,12.90
2019-04-22T05:47:46.305Z,11.47
2019-04-22T05:50:13.240Z,11.33
2019-04-22T05:52:51.513Z,10.83
2019-04-22T05:55:22.418Z,10.33
2019-04-22T05:57:57.718Z,11.20
2019-04-22T06:00:30.910Z,11.10
2019-04-22T06:02:56.587Z,11.20
2019-04-22T06:05:24.930Z,11.23
2019-04-22T06:07:53.774Z,10.50
2019-04-22T06:10:33.161Z,11.13
2019-04-22T06:12:59.656Z,11.00
2019-04-22T06:15:30.125Z,11.77
2019-04-22T06:18:09.403Z,11.57
2019-04-22T06:20:37.394Z,11.13
2019-04-22T06:23:12.351Z,10.17
2019-04-22T06:28:15.659Z,11.13
2019-04-22T06:30:53.412Z,10.97
2019-04-22T06:33:15.250Z,11.47
2019-04-22T06:35:45.771Z,11.07
2019-04-22T06:40:55.384Z,11.17
2019-04-22T06:43:16.123Z,10.10
2019-04-22T06:45:41.420Z,10.57
2019-04-22T06:50:46.504Z,10.43
2019-04-22T06:53:14.588Z,9.60
2019-04-22T06:58:10.583Z,9.73
2019-04-22T07:00:42.929Z,10.70
2019-04-22T07:05:47.559Z,10.70
2019-04-22T07:08:59.634Z,10.77
2019-04-22T07:10:49.237Z,10.60
2019-04-22T07:13:21.211Z,11.17
2019-04-22T07:15:57.462Z,11.20
2019-04-22T07:18:18.051Z,10.27
2019-04-22T07:23:24.786Z,10.60
2019-04-22T07:25:49.306Z,10.23
2019-04-22T07:28:17.755Z,11.60
2019-04-22T07:30:50.738Z,12.40
2019-04-22T07:33:19.187Z,11.90
2019-04-22T07:36:03.128Z,11.27
2019-04-22T07:38:25.494Z,10.43
2019-04-22T07:41:00.554Z,11.17
2019-04-22T07:45:58.823Z,10.80
2019-04-22T07:48:26.781Z,10.90
2019-04-22T07:53:15.869Z,10.50
2019-04-22T07:55:55.440Z,9.87
2019-04-22T08:00:53.016Z,10.43
2019-04-22T08:03:47.859Z,10.37
2019-04-22T08:05:58.816Z,10.17
2019-04-22T08:08:25.760Z,10.60
2019-04-22T08:10:56.802Z,10.77
2019-04-22T08:13:26.288Z,10.93
2019-04-22T08:18:32.974Z,10.80
2019-04-22T08:20:56.778Z,11.03
2019-04-22T08:25:55.732Z,11.67
2019-04-22T08:30:56.680Z,12.53
2019-04-22T08:33:29.096Z,10.50
2019-04-22T08:36:06.819Z,10.13
2019-04-22T08:39:25.194Z,8.93
2019-04-22T08:41:17.764Z,9.23
2019-04-22T08:43:47.682Z,9.80
2019-04-22T08:46:05.430Z,10.50
2019-04-22T08:48:48.396Z,10.23
2019-04-22T08:51:15.489Z,10.30
2019-04-22T08:53:53.731Z,9.73
2019-04-22T08:56:23.517Z,9.87
2019-04-22T08:58:48.740Z,9.53
2019-04-22T09:01:19.150Z,10.00
2019-04-22T09:03:47.002Z,10.50
2019-04-22T09:06:24.749Z,9.97
2019-04-22T09:08:49.830Z,8.90
2019-04-22T09:11:24.700Z,10.30
2019-04-22T09:16:30.147Z,9.33
2019-04-22T09:18:56.103Z,8.90
2019-04-22T09:21:26.466Z,9.70
2019-04-22T09:24:00.108Z,8.70
2019-04-22T09:26:30.352Z,9.67
2019-04-22T09:29:03.279Z,9.70
2019-04-22T09:31:23.841Z,8.90
2019-04-22T09:33:49.220Z,9.17
2019-04-22T09:36:29.040Z,9.80
2019-04-22T09:38:52.839Z,11.20
2019-04-22T09:41:28.872Z,9.57
2019-04-22T09:43:57.006Z,10.07
2019-04-22T09:46:28.414Z,10.13
2019-04-22T09:49:04.719Z,10.57
2019-04-22T09:51:26.865Z,9.53
2019-04-22T09:54:01.227Z,8.83
2019-04-22T09:58:55.692Z,10.50
2019-04-22T10:06:39.559Z,9.97
2019-04-22T10:09:12.707Z,10.30
2019-04-22T10:11:34.026Z,9.70
2019-04-22T10:14:03.920Z,9.60
2019-04-22T10:16:33.878Z,9.90
2019-04-22T10:19:01.018Z,9.70
2019-04-22T10:21:40.593Z,10.63
2019-04-22T10:23:59.506Z,9.93
2019-04-22T10:26:36.141Z,10.20
2019-04-22T10:29:01.769Z,10.77
2019-04-22T10:31:43.323Z,10.93
2019-04-22T10:33:49.616Z,10.93
2019-04-22T10:36:05.831Z,10.20
2019-04-22T10:38:34.684Z,10.80
2019-04-22T10:41:03.123Z,11.00
2019-04-22T10:43:32.828Z,10.00
2019-04-22T10:46:02.012Z,15.97
2019-04-22T10:48:30.466Z,11.30
2019-04-22T10:50:58.947Z,10.57
2019-04-22T10:53:27.418Z,9.67
2019-04-22T10:55:56.483Z,9.73
2019-04-22T10:58:24.969Z,10.10
2019-04-22T11:00:54.343Z,10.43
2019-04-22T11:03:24.520Z,9.93
2019-04-22T11:05:54.178Z,9.93
2019-04-22T11:08:31.906Z,9.93
2019-04-22T11:11:07.137Z,9.80
2019-04-22T11:13:24.291Z,9.60
2019-04-22T11:15:53.038Z,10.70
2019-04-22T11:18:21.611Z,10.10
2019-04-22T11:20:51.498Z,10.83
2019-04-22T11:23:20.580Z,10.30
2019-04-22T11:25:50.051Z,11.40
2019-04-22T11:28:19.932Z,11.10
2019-04-22T11:30:50.091Z,10.77
2019-04-22T11:33:18.550Z,10.23
2019-04-22T11:35:47.957Z,10.50
2019-04-22T11:38:22.529Z,11.20
2019-04-22T11:40:54.041Z,10.33
2019-04-22T11:43:21.977Z,10.67
2019-04-22T11:45:51.214Z,9.73
2019-04-22T11:48:19.871Z,10.47
2019-04-22T11:50:48.449Z,10.40
2019-04-22T11:53:16.895Z,10.20
2019-04-22T11:55:46.776Z,9.83
2019-04-22T11:58:15.252Z,10.77
2019-04-22T12:00:45.137Z,10.77
2019-04-22T12:03:14.749Z,10.80
2019-04-22T12:05:45.952Z,10.73
2019-04-22T12:08:15.539Z,11.40
2019-04-22T12:10:51.621Z,12.17
2019-04-22T12:13:15.660Z,11.27
2019-04-22T12:15:44.939Z,11.27
2019-04-22T12:18:15.164Z,10.90
2019-04-22T12:20:45.421Z,11.00
2019-04-22T12:23:14.800Z,10.57
2019-04-22T12:25:53.538Z,10.70
2019-04-22T12:28:15.036Z,10.43
2019-04-22T12:30:45.672Z,12.47
2019-04-22T12:33:14.911Z,12.87
2019-04-22T12:35:44.383Z,11.57
2019-04-22T12:38:15.248Z,12.03
2019-04-22T12:40:51.264Z,11.30
2019-04-22T12:43:16.142Z,11.60
2019-04-22T12:45:44.797Z,12.60
2019-04-22T12:48:14.842Z,12.60
2019-04-22T12:50:45.956Z,11.33
2019-04-22T12:53:17.737Z,11.80
2019-04-22T12:55:44.006Z,11.90
2019-04-22T12:58:13.800Z,12.37
2019-04-22T13:00:42.821Z,11.63
2019-04-22T13:03:11.238Z,12.37
2019-04-22T13:05:41.000Z,11.53
2019-04-22T13:08:09.751Z,11.90
2019-04-22T13:10:45.675Z,11.07
2019-04-22T13:13:09.175Z,12.20
2019-04-22T13:15:39.107Z,11.80
2019-04-22T13:18:17.013Z,11.20
2019-04-22T13:20:38.666Z,11.57
2019-04-22T13:23:07.758Z,11.70
2019-04-22T13:25:36.679Z,11.13
2019-04-22T13:28:05.224Z,10.90
2019-04-22T13:30:34.670Z,11.50
2019-04-22T13:33:04.975Z,11.40
2019-04-22T13:35:34.023Z,11.27
2019-04-22T13:38:02.458Z,11.23
2019-04-22T13:40:31.239Z,11.33
2019-04-22T13:43:00.747Z,10.53
2019-04-22T13:45:29.759Z,10.97
2019-04-22T13:48:16.444Z,11.27
2019-04-22T13:50:56.399Z,11.70
2019-04-22T13:58:14.614Z,10.60
2019-04-22T14:00:31.823Z,11.60
2019-04-22T14:03:08.938Z,11.60
2019-04-22T14:05:40.407Z,10.70
2019-04-22T14:08:10.701Z,10.70
2019-04-22T14:10:40.599Z,11.17
2019-04-22T14:13:09.917Z,10.67
2019-04-22T14:15:40.130Z,10.47
2019-04-22T14:18:08.900Z,11.30
2019-04-22T14:20:38.583Z,11.23
2019-04-22T14:23:08.356Z,10.97
2019-04-22T14:25:38.683Z,11.53
2019-04-22T14:28:13.114Z,11.10
2019-04-22T14:30:38.784Z,11.07
2019-04-22T14:33:07.347Z,11.33
2019-04-22T14:35:38.008Z,11.03
2019-04-22T14:38:06.528Z,10.87
2019-04-22T14:40:37.259Z,10.57
2019-04-22T14:43:28.979Z,11.07
2019-04-22T14:46:09.943Z,10.57
2019-04-22T14:48:36.308Z,10.03
2019-04-22T14:50:57.633Z,10.47
2019-04-22T14:53:27.594Z,10.23
2019-04-22T14:55:38.513Z,11.07
2019-04-22T14:58:09.012Z,10.77
2019-04-22T15:00:38.211Z,10.70
2019-04-22T15:03:08.233Z,10.50
2019-04-22T15:05:37.180Z,10.10
2019-04-22T15:08:07.084Z,10.23
2019-04-22T15:10:36.245Z,9.73
2019-04-22T15:13:05.380Z,10.97
2019-04-22T15:15:47.878Z,10.10
2019-04-22T15:18:28.806Z,10.57
2019-04-22T15:21:02.701Z,10.30
2019-04-22T15:23:31.126Z,10.43
2019-04-22T15:25:59.922Z,10.63
2019-04-22T15:28:29.215Z,10.40
2019-04-22T15:30:59.372Z,9.70
2019-04-22T15:33:27.934Z,8.90
2019-04-22T15:35:56.331Z,10.33
2019-04-22T15:38:26.143Z,10.03
2019-04-22T15:40:54.765Z,9.97
2019-04-22T15:43:26.919Z,10.10
2019-04-22T15:45:54.868Z,10.70
2019-04-22T15:48:24.978Z,9.67
2019-04-22T15:50:54.880Z,10.00
2019-04-22T15:53:23.532Z,10.40
2019-04-22T15:55:52.440Z,10.70
2019-04-22T15:58:21.816Z,10.27
2019-04-22T16:01:00.058Z,10.03
2019-04-22T16:03:20.908Z,9.50
2019-04-22T16:05:50.263Z,8.90
2019-04-22T16:08:21.157Z,9.40
2019-04-22T16:10:49.859Z,10.40
2019-04-22T16:13:23.250Z,10.10
2019-04-22T16:15:49.042Z,10.60
2019-04-22T16:18:18.249Z,9.90
2019-04-22T16:20:50.287Z,8.87
2019-04-22T16:23:23.975Z,9.63
2019-04-22T16:26:09.435Z,9.60
2019-04-22T16:28:39.512Z,9.13
2019-04-22T16:31:09.296Z,9.37
2019-04-22T16:33:40.314Z,10.20
2019-04-22T16:36:08.968Z,10.03
2019-04-22T16:38:37.516Z,9.43
2019-04-22T16:41:06.611Z,9.03
2019-04-22T16:43:36.530Z,9.60
2019-04-22T16:46:05.675Z,10.50
2019-04-22T16:48:35.486Z,10.40
2019-04-22T16:51:04.433Z,9.40
2019-04-22T16:53:32.897Z,9.03
2019-04-22T16:56:02.557Z,9.47
2019-04-22T16:58:32.648Z,9.90
2019-04-22T17:01:01.129Z,10.23
2019-04-22T17:03:48.840Z,9.50
2019-04-22T17:06:23.157Z,9.67
2019-04-22T17:08:52.874Z,10.03
2019-04-22T17:11:22.172Z,9.93
2019-04-22T17:13:50.813Z,10.30
2019-04-22T17:16:20.182Z,11.50
2019-04-22T17:18:50.080Z,10.73
2019-04-22T17:21:19.600Z,9.63
2019-04-22T17:23:49.764Z,10.03
2019-04-22T17:26:18.987Z,9.50
2019-04-22T17:28:49.222Z,9.27
2019-04-22T17:31:18.591Z,10.47
2019-04-22T17:33:48.720Z,10.40
2019-04-22T17:36:18.304Z,10.60
2019-04-22T17:38:56.462Z,9.13
2019-04-22T17:41:30.167Z,9.97
2019-04-22T17:44:15.303Z,8.50
2019-04-22T17:46:48.210Z,9.53
2019-04-22T17:49:38.317Z,8.70
2019-04-22T17:52:23.127Z,9.97
2019-04-22T17:54:50.144Z,9.77
2019-04-22T17:57:22.529Z,8.07
2019-04-22T17:59:50.465Z,9.10
2019-04-22T18:02:22.106Z,9.90
2019-04-22T18:04:38.711Z,9.70
2019-04-22T18:07:29.837Z,9.37
2019-04-22T18:10:23.395Z,8.57
2019-04-22T18:14:59.743Z,8.40
2019-04-22T18:17:30.572Z,8.83
2019-04-22T18:19:51.964Z,8.23
2019-04-22T18:22:19.812Z,9.43
2019-04-22T18:24:53.187Z,8.70
2019-04-22T18:27:42.998Z,8.33
2019-04-22T18:29:52.093Z,8.30
2019-04-22T18:32:17.981Z,10.00
2019-04-22T18:34:49.593Z,8.53
2019-04-22T18:37:23.684Z,9.17
2019-04-22T18:39:59.776Z,8.90
2019-04-22T18:42:23.829Z,8.33
2019-04-22T18:45:11.505Z,8.47
2019-04-22T18:47:25.381Z,9.40
2019-04-22T18:49:55.460Z,8.60
2019-04-22T18:52:38.005Z,8.33
2019-04-22T18:55:14.532Z,8.60
2019-04-22T18:57:59.076Z,9.37
2019-04-22T19:00:21.336Z,9.30
2019-04-22T19:02:57.216Z,8.47
2019-04-22T19:05:40.206Z,9.13
2019-04-22T19:08:18.230Z,8.07
2019-04-22T19:10:57.629Z,9.40
2019-04-22T19:13:48.883Z,9.00
2019-04-22T19:15:54.107Z,7.93
2019-04-22T19:18:27.069Z,8.63
2019-04-22T19:20:51.876Z,9.17
2019-04-22T19:23:17.914Z,8.20
2019-04-22T19:25:42.632Z,8.60
2019-04-22T19:28:23.934Z,7.93
2019-04-22T19:31:01.511Z,9.43
2019-04-22T19:33:27.050Z,8.00
2019-04-22T19:35:43.522Z,8.63
2019-04-22T19:38:12.226Z,9.80
2019-04-22T19:41:00.913Z,8.20
2019-04-22T19:43:22.617Z,8.50
2019-04-22T19:45:48.928Z,8.53
2019-04-22T19:48:30.772Z,8.57
2019-04-22T19:50:59.002Z,8.47
2019-04-22T19:53:22.728Z,9.77
2019-04-22T19:55:49.449Z,9.23
2019-04-22T19:58:20.102Z,8.57
2019-04-22T20:00:50.668Z,8.33
2019-04-22T20:03:36.262Z,7.60
2019-04-22T20:06:08.849Z,9.40
2019-04-22T20:08:34.248Z,8.77
2019-04-22T20:11:15.128Z,8.80
2019-04-22T20:13:41.411Z,8.47
2019-04-22T20:15:59.677Z,8.70
2019-04-22T20:21:12.965Z,8.70
2019-04-22T20:23:35.132Z,8.03
2019-04-22T20:26:05.082Z,8.63
2019-04-22T20:28:39.212Z,8.73
2019-04-22T20:31:09.854Z,8.27
2019-04-22T20:33:44.471Z,8.00
2019-04-22T20:36:12.623Z,8.90
2019-04-22T20:38:43.786Z,8.53
2019-04-22T20:41:07.281Z,7.73
2019-04-22T20:43:49.599Z,8.00
2019-04-22T20:46:13.506Z,8.40
2019-04-22T20:48:46.871Z,7.90
2019-04-22T20:51:11.008Z,7.87
2019-04-22T20:53:44.088Z,8.07
2019-04-22T20:56:13.071Z,7.90
2019-04-22T20:58:42.792Z,8.20
2019-04-22T21:01:03.405Z,7.83
2019-04-22T21:03:33.628Z,7.70
2019-04-22T21:06:08.732Z,8.43
2019-04-22T21:08:42.344Z,8.03
2019-04-22T21:11:07.775Z,7.73
2019-04-22T21:13:46.621Z,7.87
2019-04-22T21:16:15.281Z,7.70
2019-04-22T21:18:36.131Z,7.67
2019-04-22T21:21:15.130Z,8.03
2019-04-22T21:23:40.944Z,7.50
2019-04-22T21:26:13.905Z,7.30
2019-04-22T21:28:44.526Z,7.83
2019-04-22T21:31:18.894Z,8.07
2019-04-22T21:33:48.780Z,7.77
2019-04-22T21:36:22.142Z,8.00
2019-04-22T21:38:43.985Z,7.97
2019-04-22T21:41:17.708Z,8.30
2019-04-22T21:43:48.108Z,7.83
2019-04-22T21:46:20.734Z,7.67
2019-04-22T21:48:47.978Z,7.70
2019-04-22T21:51:19.161Z,7.60
2019-04-22T21:56:40.997Z,8.90
2019-04-22T21:58:50.629Z,8.40
2019-04-22T22:01:44.721Z,7.70
2019-04-22T22:04:15.322Z,7.20
2019-04-22T22:06:33.640Z,7.20
2019-04-22T22:09:08.963Z,7.10
2019-04-22T22:11:35.959Z,7.67
2019-04-22T22:14:09.106Z,7.37
2019-04-22T22:16:33.537Z,7.50
2019-04-22T22:19:11.213Z,7.93
2019-04-22T22:21:47.401Z,7.33
2019-04-22T22:24:08.915Z,7.50
2019-04-22T22:26:46.214Z,7.90
2019-04-22T22:29:24.590Z,6.77
2019-04-22T22:31:48.462Z,8.00
2019-04-22T22:34:13.615Z,6.87
2019-04-22T22:36:36.459Z,7.80
2019-04-22T22:39:05.792Z,7.20
2019-04-22T22:41:21.625Z,7.03
2019-04-22T22:43:52.753Z,7.10
2019-04-22T22:46:31.942Z,6.83
2019-04-22T22:49:18.718Z,7.57
2019-04-22T22:52:12.695Z,6.83
2019-04-22T22:54:17.589Z,7.10
2019-04-22T22:56:47.518Z,7.10
2019-04-22T22:59:17.922Z,6.80
2019-04-22T23:01:45.446Z,6.97
2019-04-22T23:04:20.331Z,6.90
2019-04-22T23:06:48.312Z,7.07
2019-04-22T23:09:12.985Z,6.33
2019-04-22T23:12:00.255Z,6.80
2019-04-22T23:14:14.565Z,6.80
2019-04-22T23:16:33.900Z,6.63
2019-04-22T23:19:04.457Z,6.77
2019-04-22T23:21:39.645Z,6.83
2019-04-22T23:24:21.272Z,6.97
2019-04-22T23:26:59.730Z,6.70
2019-04-22T23:29:28.523Z,6.60
2019-04-22T23:32:05.485Z,7.00
2019-04-22T23:34:38.855Z,6.70
2019-04-22T23:37:17.795Z,7.23
2019-04-22T23:40:02.190Z,6.70
2019-04-22T23:42:41.791Z,6.87
2019-04-22T23:44:55.270Z,7.27
2019-04-22T23:47:18.521Z,6.97
2019-04-22T23:49:56.361Z,6.63
2019-04-22T23:52:30.650Z,6.40
2019-04-22T23:55:03.635Z,7.27
2019-04-22T23:57:33.240Z,7.50
